<?xml version="1.0" encoding="UTF-8" standalone="no" ?>
<gpx xmlns="http://www.topografix.com/GPX/1/1" xmlns:xsi="http://www.w3.org/2001/XMLSchema-instance" xsi:schemaLocation="http://www.topografix.com/GPX/1/1 http://www.topografix.com/GPX/1/1/gpx.xsd" version="1.1" creator="VisuGPX - https://www.visugpx.com">
  <metadata>
    <name>abbaretz_5Tresors_TourArche_22km</name>
    <desc><![CDATA[gnerando idor: 7059957_7059979_7060017_9914522]]></desc>
  </metadata>
  <trk>
    <name><![CDATA[Abbaretz_5Trésors_25.2km-7060017]]></name>
    <extensions>
      <line xmlns="http://www.topografix.com/GPX/gpx_style/0/2">
        <color>800080</color>
        <width>4</width>
      </line>
    </extensions>
    <trkseg>
      <trkpt lat="47.55466" lon="-1.52524">
        <ele>62</ele>
        <time>2023-10-29T15:20:08Z</time>
      </trkpt>
      <trkpt lat="47.55458" lon="-1.5252">
        <ele>62</ele>
        <time>2023-10-29T15:20:19Z</time>
      </trkpt>
      <trkpt lat="47.55449" lon="-1.52521">
        <ele>62</ele>
        <time>2023-10-29T15:20:31Z</time>
      </trkpt>
      <trkpt lat="47.553" lon="-1.52559">
        <ele>66</ele>
        <time>2023-10-29T15:23:53Z</time>
      </trkpt>
      <trkpt lat="47.55306" lon="-1.52422">
        <ele>66</ele>
        <time>2023-10-29T15:25:57Z</time>
      </trkpt>
      <trkpt lat="47.55402" lon="-1.52411">
        <ele>63</ele>
        <time>2023-10-29T15:28:05Z</time>
      </trkpt>
      <trkpt lat="47.55725" lon="-1.52352">
        <ele>63</ele>
        <time>2023-10-29T15:35:20Z</time>
      </trkpt>
      <trkpt lat="47.55827" lon="-1.52325">
        <ele>63</ele>
        <time>2023-10-29T15:37:38Z</time>
      </trkpt>
      <trkpt lat="47.55859" lon="-1.52112">
        <ele>56</ele>
        <time>2023-10-29T15:40:54Z</time>
      </trkpt>
      <trkpt lat="47.55876" lon="-1.52034">
        <ele>54</ele>
        <time>2023-10-29T15:42:08Z</time>
      </trkpt>
      <trkpt lat="47.55899" lon="-1.51965">
        <ele>53</ele>
        <time>2023-10-29T15:43:17Z</time>
      </trkpt>
      <trkpt lat="47.55926" lon="-1.51916">
        <ele>53</ele>
        <time>2023-10-29T15:44:14Z</time>
      </trkpt>
      <trkpt lat="47.55945" lon="-1.51923">
        <ele>53</ele>
        <time>2023-10-29T15:44:40Z</time>
      </trkpt>
      <trkpt lat="47.56012" lon="-1.51918">
        <ele>52</ele>
        <time>2023-10-29T15:46:10Z</time>
      </trkpt>
      <trkpt lat="47.5604" lon="-1.5192">
        <ele>52</ele>
        <time>2023-10-29T15:46:47Z</time>
      </trkpt>
      <trkpt lat="47.56202" lon="-1.51988">
        <ele>50</ele>
        <time>2023-10-29T15:50:32Z</time>
      </trkpt>
      <trkpt lat="47.56259" lon="-1.52011">
        <ele>49</ele>
        <time>2023-10-29T15:51:51Z</time>
      </trkpt>
      <trkpt lat="47.56253" lon="-1.51964">
        <ele>49</ele>
        <time>2023-10-29T15:52:34Z</time>
      </trkpt>
      <trkpt lat="47.56252" lon="-1.51933">
        <ele>49</ele>
        <time>2023-10-29T15:53:02Z</time>
      </trkpt>
      <trkpt lat="47.56273" lon="-1.5183">
        <ele>49</ele>
        <time>2023-10-29T15:54:39Z</time>
      </trkpt>
      <trkpt lat="47.56354" lon="-1.51897">
        <ele>50</ele>
        <time>2023-10-29T15:56:43Z</time>
      </trkpt>
      <trkpt lat="47.56418" lon="-1.51983">
        <ele>48</ele>
        <time>2023-10-29T15:58:38Z</time>
      </trkpt>
      <trkpt lat="47.5644" lon="-1.52001">
        <ele>48</ele>
        <time>2023-10-29T15:59:11Z</time>
      </trkpt>
      <trkpt lat="47.56462" lon="-1.52005">
        <ele>48</ele>
        <time>2023-10-29T15:59:41Z</time>
      </trkpt>
      <trkpt lat="47.56526" lon="-1.51994">
        <ele>48</ele>
        <time>2023-10-29T16:01:07Z</time>
      </trkpt>
      <trkpt lat="47.56542" lon="-1.51999">
        <ele>47</ele>
        <time>2023-10-29T16:01:29Z</time>
      </trkpt>
      <trkpt lat="47.56581" lon="-1.51962">
        <ele>47</ele>
        <time>2023-10-29T16:02:31Z</time>
      </trkpt>
      <trkpt lat="47.56579" lon="-1.51943">
        <ele>47</ele>
        <time>2023-10-29T16:02:48Z</time>
      </trkpt>
      <trkpt lat="47.56587" lon="-1.51702">
        <ele>46</ele>
        <time>2023-10-29T16:06:25Z</time>
      </trkpt>
      <trkpt lat="47.56579" lon="-1.51419">
        <ele>46</ele>
        <time>2023-10-29T16:10:40Z</time>
      </trkpt>
      <trkpt lat="47.56581" lon="-1.51372">
        <ele>47</ele>
        <time>2023-10-29T16:11:23Z</time>
      </trkpt>
      <trkpt lat="47.56641" lon="-1.50971">
        <ele>46</ele>
        <time>2023-10-29T16:17:33Z</time>
      </trkpt>
      <trkpt lat="47.56643" lon="-1.5096">
        <ele>46</ele>
        <time>2023-10-29T16:17:43Z</time>
      </trkpt>
      <trkpt lat="47.56671" lon="-1.50972">
        <ele>45</ele>
        <time>2023-10-29T16:18:22Z</time>
      </trkpt>
      <trkpt lat="47.56696" lon="-1.50974">
        <ele>44</ele>
        <time>2023-10-29T16:18:55Z</time>
      </trkpt>
      <trkpt lat="47.56767" lon="-1.50951">
        <ele>43</ele>
        <time>2023-10-29T16:20:32Z</time>
      </trkpt>
      <trkpt lat="47.56819" lon="-1.50955">
        <ele>44</ele>
        <time>2023-10-29T16:21:42Z</time>
      </trkpt>
      <trkpt lat="47.56825" lon="-1.50952">
        <ele>44</ele>
        <time>2023-10-29T16:21:50Z</time>
      </trkpt>
      <trkpt lat="47.56828" lon="-1.50935">
        <ele>43</ele>
        <time>2023-10-29T16:22:06Z</time>
      </trkpt>
      <trkpt lat="47.56831" lon="-1.50761">
        <ele>40</ele>
        <time>2023-10-29T16:24:43Z</time>
      </trkpt>
      <trkpt lat="47.56837" lon="-1.5075">
        <ele>40</ele>
        <time>2023-10-29T16:24:55Z</time>
      </trkpt>
      <trkpt lat="47.57186" lon="-1.50709">
        <ele>37</ele>
        <time>2023-10-29T16:32:42Z</time>
      </trkpt>
      <trkpt lat="47.57203" lon="-1.50701">
        <ele>37</ele>
        <time>2023-10-29T16:33:06Z</time>
      </trkpt>
      <trkpt lat="47.57195" lon="-1.50691">
        <ele>37</ele>
        <time>2023-10-29T16:33:20Z</time>
      </trkpt>
      <trkpt lat="47.57191" lon="-1.50679">
        <ele>37</ele>
        <time>2023-10-29T16:33:32Z</time>
      </trkpt>
      <trkpt lat="47.57182" lon="-1.50482">
        <ele>36</ele>
        <time>2023-10-29T16:36:30Z</time>
      </trkpt>
      <trkpt lat="47.5717" lon="-1.50446">
        <ele>37</ele>
        <time>2023-10-29T16:37:06Z</time>
      </trkpt>
      <trkpt lat="47.57102" lon="-1.50285">
        <ele>37</ele>
        <time>2023-10-29T16:39:57Z</time>
      </trkpt>
      <trkpt lat="47.57036" lon="-1.50074">
        <ele>37</ele>
        <time>2023-10-29T16:43:27Z</time>
      </trkpt>
      <trkpt lat="47.57026" lon="-1.49931">
        <ele>39</ele>
        <time>2023-10-29T16:45:36Z</time>
      </trkpt>
      <trkpt lat="47.57027" lon="-1.49891">
        <ele>39</ele>
        <time>2023-10-29T16:46:12Z</time>
      </trkpt>
      <trkpt lat="47.5703" lon="-1.4985">
        <ele>39</ele>
        <time>2023-10-29T16:46:49Z</time>
      </trkpt>
      <trkpt lat="47.57025" lon="-1.49799">
        <ele>39</ele>
        <time>2023-10-29T16:47:36Z</time>
      </trkpt>
      <trkpt lat="47.57018" lon="-1.49751">
        <ele>39</ele>
        <time>2023-10-29T16:48:20Z</time>
      </trkpt>
      <trkpt lat="47.5701" lon="-1.49719">
        <ele>39</ele>
        <time>2023-10-29T16:48:51Z</time>
      </trkpt>
      <trkpt lat="47.57008" lon="-1.49708">
        <ele>39</ele>
        <time>2023-10-29T16:49:01Z</time>
      </trkpt>
      <trkpt lat="47.57011" lon="-1.49651">
        <ele>39</ele>
        <time>2023-10-29T16:49:52Z</time>
      </trkpt>
      <trkpt lat="47.57009" lon="-1.49607">
        <ele>39</ele>
        <time>2023-10-29T16:50:32Z</time>
      </trkpt>
      <trkpt lat="47.57001" lon="-1.49602">
        <ele>39</ele>
        <time>2023-10-29T16:50:44Z</time>
      </trkpt>
      <trkpt lat="47.56986" lon="-1.49578">
        <ele>39</ele>
        <time>2023-10-29T16:51:13Z</time>
      </trkpt>
      <trkpt lat="47.56894" lon="-1.49492">
        <ele>39</ele>
        <time>2023-10-29T16:53:38Z</time>
      </trkpt>
      <trkpt lat="47.56786" lon="-1.49462">
        <ele>39</ele>
        <time>2023-10-29T16:56:05Z</time>
      </trkpt>
      <trkpt lat="47.56812" lon="-1.49166">
        <ele>36</ele>
        <time>2023-10-29T17:00:34Z</time>
      </trkpt>
      <trkpt lat="47.57095" lon="-1.49168">
        <ele>38</ele>
        <time>2023-10-29T17:06:51Z</time>
      </trkpt>
      <trkpt lat="47.57201" lon="-1.49161">
        <ele>35</ele>
        <time>2023-10-29T17:09:13Z</time>
      </trkpt>
      <trkpt lat="47.57241" lon="-1.49152">
        <ele>36</ele>
        <time>2023-10-29T17:10:07Z</time>
      </trkpt>
      <trkpt lat="47.57337" lon="-1.49092">
        <ele>40</ele>
        <time>2023-10-29T17:12:26Z</time>
      </trkpt>
      <trkpt lat="47.57343" lon="-1.4908">
        <ele>40</ele>
        <time>2023-10-29T17:12:39Z</time>
      </trkpt>
      <trkpt lat="47.57346" lon="-1.49061">
        <ele>41</ele>
        <time>2023-10-29T17:12:57Z</time>
      </trkpt>
      <trkpt lat="47.57327" lon="-1.48965">
        <ele>44</ele>
        <time>2023-10-29T17:14:27Z</time>
      </trkpt>
      <trkpt lat="47.57327" lon="-1.48922">
        <ele>48</ele>
        <time>2023-10-29T17:15:06Z</time>
      </trkpt>
      <trkpt lat="47.57378" lon="-1.487">
        <ele>55</ele>
        <time>2023-10-29T17:18:37Z</time>
      </trkpt>
      <trkpt lat="47.57389" lon="-1.48666">
        <ele>55</ele>
        <time>2023-10-29T17:19:11Z</time>
      </trkpt>
      <trkpt lat="47.57402" lon="-1.48649">
        <ele>55</ele>
        <time>2023-10-29T17:19:34Z</time>
      </trkpt>
      <trkpt lat="47.57507" lon="-1.48616">
        <ele>58</ele>
        <time>2023-10-29T17:21:57Z</time>
      </trkpt>
      <trkpt lat="47.57518" lon="-1.4861">
        <ele>58</ele>
        <time>2023-10-29T17:22:13Z</time>
      </trkpt>
      <trkpt lat="47.57526" lon="-1.486">
        <ele>58</ele>
        <time>2023-10-29T17:22:27Z</time>
      </trkpt>
      <trkpt lat="47.57531" lon="-1.48573">
        <ele>59</ele>
        <time>2023-10-29T17:22:52Z</time>
      </trkpt>
      <trkpt lat="47.57528" lon="-1.48474">
        <ele>60</ele>
        <time>2023-10-29T17:24:21Z</time>
      </trkpt>
      <trkpt lat="47.57532" lon="-1.48418">
        <ele>61</ele>
        <time>2023-10-29T17:25:12Z</time>
      </trkpt>
      <trkpt lat="47.57569" lon="-1.48271">
        <ele>63</ele>
        <time>2023-10-29T17:27:33Z</time>
      </trkpt>
      <trkpt lat="47.5758" lon="-1.48252">
        <ele>63</ele>
        <time>2023-10-29T17:27:56Z</time>
      </trkpt>
      <trkpt lat="47.57574" lon="-1.48222">
        <ele>63</ele>
        <time>2023-10-29T17:28:24Z</time>
      </trkpt>
      <trkpt lat="47.57572" lon="-1.48181">
        <ele>64</ele>
        <time>2023-10-29T17:29:01Z</time>
      </trkpt>
      <trkpt lat="47.57573" lon="-1.48081">
        <ele>66</ele>
        <time>2023-10-29T17:30:31Z</time>
      </trkpt>
      <trkpt lat="47.57577" lon="-1.48026">
        <ele>67</ele>
        <time>2023-10-29T17:31:21Z</time>
      </trkpt>
      <trkpt lat="47.5759" lon="-1.47969">
        <ele>66</ele>
        <time>2023-10-29T17:32:15Z</time>
      </trkpt>
      <trkpt lat="47.5759" lon="-1.47969">
        <ele>66</ele>
        <time>2023-10-29T17:32:15Z</time>
      </trkpt>
      <trkpt lat="47.57183" lon="-1.4786">
        <ele>46</ele>
        <time>2023-10-29T17:41:27Z</time>
      </trkpt>
      <trkpt lat="47.56955" lon="-1.47793">
        <ele>41</ele>
        <time>2023-10-29T17:46:37Z</time>
      </trkpt>
      <trkpt lat="47.56818" lon="-1.47756">
        <ele>39</ele>
        <time>2023-10-29T17:49:43Z</time>
      </trkpt>
      <trkpt lat="47.55859" lon="-1.47027">
        <ele>62</ele>
        <time>2023-10-29T18:13:41Z</time>
      </trkpt>
      <trkpt lat="47.55817" lon="-1.46983">
        <ele>68</ele>
        <time>2023-10-29T18:14:50Z</time>
      </trkpt>
      <trkpt lat="47.55817" lon="-1.46983">
        <ele>68</ele>
        <time>2023-10-29T18:14:50Z</time>
      </trkpt>
      <trkpt lat="47.55834" lon="-1.46977">
        <ele>68</ele>
        <time>2023-10-29T18:15:13Z</time>
      </trkpt>
      <trkpt lat="47.55863" lon="-1.46959">
        <ele>66</ele>
        <time>2023-10-29T18:15:55Z</time>
      </trkpt>
      <trkpt lat="47.56061" lon="-1.46795">
        <ele>61</ele>
        <time>2023-10-29T18:20:58Z</time>
      </trkpt>
      <trkpt lat="47.56218" lon="-1.46703">
        <ele>55</ele>
        <time>2023-10-29T18:24:43Z</time>
      </trkpt>
      <trkpt lat="47.56258" lon="-1.46665">
        <ele>53</ele>
        <time>2023-10-29T18:25:46Z</time>
      </trkpt>
      <trkpt lat="47.564" lon="-1.46507">
        <ele>50</ele>
        <time>2023-10-29T18:29:43Z</time>
      </trkpt>
      <trkpt lat="47.5642" lon="-1.46475">
        <ele>51</ele>
        <time>2023-10-29T18:30:23Z</time>
      </trkpt>
      <trkpt lat="47.56426" lon="-1.46459">
        <ele>51</ele>
        <time>2023-10-29T18:30:39Z</time>
      </trkpt>
      <trkpt lat="47.56439" lon="-1.46163">
        <ele>61</ele>
        <time>2023-10-29T18:35:06Z</time>
      </trkpt>
      <trkpt lat="47.56431" lon="-1.45863">
        <ele>61</ele>
        <time>2023-10-29T18:39:36Z</time>
      </trkpt>
      <trkpt lat="47.56475" lon="-1.45426">
        <ele>59</ele>
        <time>2023-10-29T18:46:14Z</time>
      </trkpt>
      <trkpt lat="47.56546" lon="-1.45112">
        <ele>57</ele>
        <time>2023-10-29T18:51:13Z</time>
      </trkpt>
      <trkpt lat="47.5657" lon="-1.45041">
        <ele>59</ele>
        <time>2023-10-29T18:52:24Z</time>
      </trkpt>
      <trkpt lat="47.56577" lon="-1.44882">
        <ele>62</ele>
        <time>2023-10-29T18:54:47Z</time>
      </trkpt>
      <trkpt lat="47.56596" lon="-1.4471">
        <ele>62</ele>
        <time>2023-10-29T18:57:24Z</time>
      </trkpt>
      <trkpt lat="47.5664" lon="-1.44385">
        <ele>56</ele>
        <time>2023-10-29T19:02:23Z</time>
      </trkpt>
      <trkpt lat="47.56531" lon="-1.44333">
        <ele>64</ele>
        <time>2023-10-29T19:04:56Z</time>
      </trkpt>
      <trkpt lat="47.56532" lon="-1.44304">
        <ele>64</ele>
        <time>2023-10-29T19:05:22Z</time>
      </trkpt>
      <trkpt lat="47.565" lon="-1.44256">
        <ele>69</ele>
        <time>2023-10-29T19:06:23Z</time>
      </trkpt>
      <trkpt lat="47.5649" lon="-1.44249">
        <ele>69</ele>
        <time>2023-10-29T19:06:37Z</time>
      </trkpt>
      <trkpt lat="47.56315" lon="-1.44186">
        <ele>79</ele>
        <time>2023-10-29T19:10:38Z</time>
      </trkpt>
      <trkpt lat="47.56168" lon="-1.4414">
        <ele>84</ele>
        <time>2023-10-29T19:13:58Z</time>
      </trkpt>
      <trkpt lat="47.56182" lon="-1.44046">
        <ele>84</ele>
        <time>2023-10-29T19:15:25Z</time>
      </trkpt>
      <trkpt lat="47.56185" lon="-1.43949">
        <ele>82</ele>
        <time>2023-10-29T19:16:52Z</time>
      </trkpt>
      <trkpt lat="47.56058" lon="-1.43926">
        <ele>78</ele>
        <time>2023-10-29T19:19:43Z</time>
      </trkpt>
      <trkpt lat="47.56054" lon="-1.43995">
        <ele>79</ele>
        <time>2023-10-29T19:20:45Z</time>
      </trkpt>
      <trkpt lat="47.56043" lon="-1.44108">
        <ele>80</ele>
        <time>2023-10-29T19:22:28Z</time>
      </trkpt>
      <trkpt lat="47.56023" lon="-1.44355">
        <ele>79</ele>
        <time>2023-10-29T19:26:12Z</time>
      </trkpt>
      <trkpt lat="47.55843" lon="-1.44473">
        <ele>70</ele>
        <time>2023-10-29T19:30:35Z</time>
      </trkpt>
      <trkpt lat="47.55724" lon="-1.44688">
        <ele>69</ele>
        <time>2023-10-29T19:34:45Z</time>
      </trkpt>
      <trkpt lat="47.55609" lon="-1.44626">
        <ele>61</ele>
        <time>2023-10-29T19:37:29Z</time>
      </trkpt>
      <trkpt lat="47.55516" lon="-1.44593">
        <ele>58</ele>
        <time>2023-10-29T19:39:36Z</time>
      </trkpt>
      <trkpt lat="47.55442" lon="-1.44949">
        <ele>59</ele>
        <time>2023-10-29T19:45:12Z</time>
      </trkpt>
      <trkpt lat="47.55437" lon="-1.4498">
        <ele>59</ele>
        <time>2023-10-29T19:45:40Z</time>
      </trkpt>
      <trkpt lat="47.55149" lon="-1.44869">
        <ele>53</ele>
        <time>2023-10-29T19:52:18Z</time>
      </trkpt>
      <trkpt lat="47.55189" lon="-1.46475">
        <ele>64</ele>
        <time>2023-10-29T20:16:25Z</time>
      </trkpt>
      <trkpt lat="47.55295" lon="-1.46633">
        <ele>67</ele>
        <time>2023-10-29T20:19:46Z</time>
      </trkpt>
      <trkpt lat="47.55258" lon="-1.47066">
        <ele>67</ele>
        <time>2023-10-29T20:26:19Z</time>
      </trkpt>
      <trkpt lat="47.5515" lon="-1.47092">
        <ele>61</ele>
        <time>2023-10-29T20:28:45Z</time>
      </trkpt>
      <trkpt lat="47.5505" lon="-1.47126">
        <ele>60</ele>
        <time>2023-10-29T20:31:02Z</time>
      </trkpt>
      <trkpt lat="47.54798" lon="-1.47333">
        <ele>56</ele>
        <time>2023-10-29T20:37:26Z</time>
      </trkpt>
      <trkpt lat="47.54757" lon="-1.47653">
        <ele>58</ele>
        <time>2023-10-29T20:42:20Z</time>
      </trkpt>
      <trkpt lat="47.54812" lon="-1.48248">
        <ele>60</ele>
        <time>2023-10-29T20:51:20Z</time>
      </trkpt>
      <trkpt lat="47.5479" lon="-1.48477">
        <ele>59</ele>
        <time>2023-10-29T20:54:49Z</time>
      </trkpt>
      <trkpt lat="47.5474" lon="-1.48709">
        <ele>58</ele>
        <time>2023-10-29T20:58:28Z</time>
      </trkpt>
      <trkpt lat="47.54692" lon="-1.48889">
        <ele>58</ele>
        <time>2023-10-29T21:01:23Z</time>
      </trkpt>
      <trkpt lat="47.54905" lon="-1.48876">
        <ele>58</ele>
        <time>2023-10-29T21:06:07Z</time>
      </trkpt>
      <trkpt lat="47.5501" lon="-1.4886">
        <ele>60</ele>
        <time>2023-10-29T21:08:28Z</time>
      </trkpt>
      <trkpt lat="47.55053" lon="-1.48847">
        <ele>61</ele>
        <time>2023-10-29T21:09:26Z</time>
      </trkpt>
      <trkpt lat="47.55204" lon="-1.48789">
        <ele>64</ele>
        <time>2023-10-29T21:12:55Z</time>
      </trkpt>
      <trkpt lat="47.55296" lon="-1.48762">
        <ele>68</ele>
        <time>2023-10-29T21:15:00Z</time>
      </trkpt>
      <trkpt lat="47.55318" lon="-1.48769">
        <ele>69</ele>
        <time>2023-10-29T21:15:30Z</time>
      </trkpt>
      <trkpt lat="47.5537" lon="-1.488">
        <ele>71</ele>
        <time>2023-10-29T21:16:45Z</time>
      </trkpt>
      <trkpt lat="47.55435" lon="-1.48833">
        <ele>74</ele>
        <time>2023-10-29T21:18:16Z</time>
      </trkpt>
      <trkpt lat="47.55527" lon="-1.48871">
        <ele>78</ele>
        <time>2023-10-29T21:20:24Z</time>
      </trkpt>
      <trkpt lat="47.55558" lon="-1.48878">
        <ele>77</ele>
        <time>2023-10-29T21:21:06Z</time>
      </trkpt>
      <trkpt lat="47.55559" lon="-1.48913">
        <ele>75</ele>
        <time>2023-10-29T21:21:37Z</time>
      </trkpt>
      <trkpt lat="47.55585" lon="-1.48935">
        <ele>75</ele>
        <time>2023-10-29T21:22:17Z</time>
      </trkpt>
      <trkpt lat="47.55608" lon="-1.48946">
        <ele>74</ele>
        <time>2023-10-29T21:22:49Z</time>
      </trkpt>
      <trkpt lat="47.55628" lon="-1.48955">
        <ele>73</ele>
        <time>2023-10-29T21:23:17Z</time>
      </trkpt>
      <trkpt lat="47.55667" lon="-1.48963">
        <ele>71</ele>
        <time>2023-10-29T21:24:10Z</time>
      </trkpt>
      <trkpt lat="47.55719" lon="-1.49002">
        <ele>66</ele>
        <time>2023-10-29T21:25:28Z</time>
      </trkpt>
      <trkpt lat="47.55799" lon="-1.49047">
        <ele>59</ele>
        <time>2023-10-29T21:27:22Z</time>
      </trkpt>
      <trkpt lat="47.55804" lon="-1.49056">
        <ele>59</ele>
        <time>2023-10-29T21:27:32Z</time>
      </trkpt>
      <trkpt lat="47.56018" lon="-1.49154">
        <ele>51</ele>
        <time>2023-10-29T21:32:31Z</time>
      </trkpt>
      <trkpt lat="47.56028" lon="-1.49154">
        <ele>51</ele>
        <time>2023-10-29T21:32:44Z</time>
      </trkpt>
      <trkpt lat="47.56043" lon="-1.49144">
        <ele>50</ele>
        <time>2023-10-29T21:33:06Z</time>
      </trkpt>
      <trkpt lat="47.5605" lon="-1.49149">
        <ele>50</ele>
        <time>2023-10-29T21:33:17Z</time>
      </trkpt>
      <trkpt lat="47.56044" lon="-1.49161">
        <ele>50</ele>
        <time>2023-10-29T21:33:30Z</time>
      </trkpt>
      <trkpt lat="47.56079" lon="-1.49166">
        <ele>50</ele>
        <time>2023-10-29T21:34:17Z</time>
      </trkpt>
      <trkpt lat="47.56161" lon="-1.49167">
        <ele>47</ele>
        <time>2023-10-29T21:36:07Z</time>
      </trkpt>
      <trkpt lat="47.56812" lon="-1.49166">
        <ele>36</ele>
        <time>2023-10-29T21:50:35Z</time>
      </trkpt>
      <trkpt lat="47.56786" lon="-1.49462">
        <ele>39</ele>
        <time>2023-10-29T21:55:04Z</time>
      </trkpt>
      <trkpt lat="47.56774" lon="-1.49606">
        <ele>40</ele>
        <time>2023-10-29T21:57:15Z</time>
      </trkpt>
      <trkpt lat="47.56661" lon="-1.49605">
        <ele>40</ele>
        <time>2023-10-29T21:59:45Z</time>
      </trkpt>
      <trkpt lat="47.56319" lon="-1.49615">
        <ele>42</ele>
        <time>2023-10-29T22:07:22Z</time>
      </trkpt>
      <trkpt lat="47.56287" lon="-1.49616">
        <ele>43</ele>
        <time>2023-10-29T22:08:05Z</time>
      </trkpt>
      <trkpt lat="47.56274" lon="-1.49622">
        <ele>44</ele>
        <time>2023-10-29T22:08:23Z</time>
      </trkpt>
      <trkpt lat="47.56262" lon="-1.49642">
        <ele>44</ele>
        <time>2023-10-29T22:08:47Z</time>
      </trkpt>
      <trkpt lat="47.56253" lon="-1.49687">
        <ele>44</ele>
        <time>2023-10-29T22:09:29Z</time>
      </trkpt>
      <trkpt lat="47.56186" lon="-1.50123">
        <ele>48</ele>
        <time>2023-10-29T22:16:12Z</time>
      </trkpt>
      <trkpt lat="47.56046" lon="-1.50168">
        <ele>51</ele>
        <time>2023-10-29T22:19:23Z</time>
      </trkpt>
      <trkpt lat="47.55909" lon="-1.50217">
        <ele>55</ele>
        <time>2023-10-29T22:22:31Z</time>
      </trkpt>
      <trkpt lat="47.55894" lon="-1.50226">
        <ele>56</ele>
        <time>2023-10-29T22:22:53Z</time>
      </trkpt>
      <trkpt lat="47.55882" lon="-1.50351">
        <ele>57</ele>
        <time>2023-10-29T22:24:46Z</time>
      </trkpt>
      <trkpt lat="47.5587" lon="-1.50442">
        <ele>57</ele>
        <time>2023-10-29T22:26:10Z</time>
      </trkpt>
      <trkpt lat="47.5592" lon="-1.50516">
        <ele>56</ele>
        <time>2023-10-29T22:27:44Z</time>
      </trkpt>
      <trkpt lat="47.55933" lon="-1.50544">
        <ele>56</ele>
        <time>2023-10-29T22:28:15Z</time>
      </trkpt>
      <trkpt lat="47.55965" lon="-1.5063">
        <ele>55</ele>
        <time>2023-10-29T22:29:43Z</time>
      </trkpt>
      <trkpt lat="47.55986" lon="-1.50671">
        <ele>55</ele>
        <time>2023-10-29T22:30:30Z</time>
      </trkpt>
      <trkpt lat="47.56016" lon="-1.50717">
        <ele>55</ele>
        <time>2023-10-29T22:31:27Z</time>
      </trkpt>
      <trkpt lat="47.56022" lon="-1.50737">
        <ele>54</ele>
        <time>2023-10-29T22:31:47Z</time>
      </trkpt>
      <trkpt lat="47.56145" lon="-1.50778">
        <ele>50</ele>
        <time>2023-10-29T22:34:35Z</time>
      </trkpt>
      <trkpt lat="47.56281" lon="-1.50754">
        <ele>48</ele>
        <time>2023-10-29T22:37:38Z</time>
      </trkpt>
      <trkpt lat="47.56304" lon="-1.50754">
        <ele>47</ele>
        <time>2023-10-29T22:38:09Z</time>
      </trkpt>
      <trkpt lat="47.56388" lon="-1.50785">
        <ele>48</ele>
        <time>2023-10-29T22:40:04Z</time>
      </trkpt>
      <trkpt lat="47.56475" lon="-1.50786">
        <ele>47</ele>
        <time>2023-10-29T22:42:00Z</time>
      </trkpt>
      <trkpt lat="47.56489" lon="-1.50794">
        <ele>47</ele>
        <time>2023-10-29T22:42:20Z</time>
      </trkpt>
      <trkpt lat="47.56532" lon="-1.50835">
        <ele>48</ele>
        <time>2023-10-29T22:43:29Z</time>
      </trkpt>
      <trkpt lat="47.56536" lon="-1.50839">
        <ele>48</ele>
        <time>2023-10-29T22:43:35Z</time>
      </trkpt>
      <trkpt lat="47.56583" lon="-1.50874">
        <ele>47</ele>
        <time>2023-10-29T22:44:45Z</time>
      </trkpt>
      <trkpt lat="47.56651" lon="-1.50905">
        <ele>45</ele>
        <time>2023-10-29T22:46:20Z</time>
      </trkpt>
      <trkpt lat="47.56643" lon="-1.5096">
        <ele>46</ele>
        <time>2023-10-29T22:47:11Z</time>
      </trkpt>
      <trkpt lat="47.56641" lon="-1.50971">
        <ele>46</ele>
        <time>2023-10-29T22:47:21Z</time>
      </trkpt>
      <trkpt lat="47.56581" lon="-1.51372">
        <ele>47</ele>
        <time>2023-10-29T22:53:31Z</time>
      </trkpt>
      <trkpt lat="47.56579" lon="-1.51419">
        <ele>46</ele>
        <time>2023-10-29T22:54:13Z</time>
      </trkpt>
      <trkpt lat="47.56587" lon="-1.51702">
        <ele>46</ele>
        <time>2023-10-29T22:58:28Z</time>
      </trkpt>
      <trkpt lat="47.56579" lon="-1.51943">
        <ele>47</ele>
        <time>2023-10-29T23:02:06Z</time>
      </trkpt>
      <trkpt lat="47.56581" lon="-1.51962">
        <ele>47</ele>
        <time>2023-10-29T23:02:23Z</time>
      </trkpt>
      <trkpt lat="47.56542" lon="-1.51999">
        <ele>47</ele>
        <time>2023-10-29T23:03:25Z</time>
      </trkpt>
      <trkpt lat="47.56526" lon="-1.51994">
        <ele>48</ele>
        <time>2023-10-29T23:03:46Z</time>
      </trkpt>
      <trkpt lat="47.56462" lon="-1.52005">
        <ele>48</ele>
        <time>2023-10-29T23:05:12Z</time>
      </trkpt>
      <trkpt lat="47.5644" lon="-1.52001">
        <ele>48</ele>
        <time>2023-10-29T23:05:42Z</time>
      </trkpt>
      <trkpt lat="47.56418" lon="-1.51983">
        <ele>48</ele>
        <time>2023-10-29T23:06:16Z</time>
      </trkpt>
      <trkpt lat="47.56354" lon="-1.51897">
        <ele>50</ele>
        <time>2023-10-29T23:08:11Z</time>
      </trkpt>
      <trkpt lat="47.56273" lon="-1.5183">
        <ele>49</ele>
        <time>2023-10-29T23:10:15Z</time>
      </trkpt>
      <trkpt lat="47.56252" lon="-1.51933">
        <ele>49</ele>
        <time>2023-10-29T23:11:52Z</time>
      </trkpt>
      <trkpt lat="47.56253" lon="-1.51964">
        <ele>49</ele>
        <time>2023-10-29T23:12:19Z</time>
      </trkpt>
      <trkpt lat="47.56259" lon="-1.52011">
        <ele>49</ele>
        <time>2023-10-29T23:13:03Z</time>
      </trkpt>
      <trkpt lat="47.56202" lon="-1.51988">
        <ele>50</ele>
        <time>2023-10-29T23:14:21Z</time>
      </trkpt>
      <trkpt lat="47.5604" lon="-1.5192">
        <ele>52</ele>
        <time>2023-10-29T23:18:06Z</time>
      </trkpt>
      <trkpt lat="47.56012" lon="-1.51918">
        <ele>52</ele>
        <time>2023-10-29T23:18:43Z</time>
      </trkpt>
      <trkpt lat="47.55945" lon="-1.51923">
        <ele>53</ele>
        <time>2023-10-29T23:20:13Z</time>
      </trkpt>
      <trkpt lat="47.55926" lon="-1.51916">
        <ele>53</ele>
        <time>2023-10-29T23:20:39Z</time>
      </trkpt>
      <trkpt lat="47.55899" lon="-1.51965">
        <ele>53</ele>
        <time>2023-10-29T23:21:36Z</time>
      </trkpt>
      <trkpt lat="47.55876" lon="-1.52034">
        <ele>54</ele>
        <time>2023-10-29T23:22:45Z</time>
      </trkpt>
      <trkpt lat="47.55859" lon="-1.52112">
        <ele>56</ele>
        <time>2023-10-29T23:23:59Z</time>
      </trkpt>
      <trkpt lat="47.55827" lon="-1.52325">
        <ele>63</ele>
        <time>2023-10-29T23:27:16Z</time>
      </trkpt>
      <trkpt lat="47.55725" lon="-1.52352">
        <ele>63</ele>
        <time>2023-10-29T23:29:34Z</time>
      </trkpt>
      <trkpt lat="47.55402" lon="-1.52411">
        <ele>63</ele>
        <time>2023-10-29T23:36:48Z</time>
      </trkpt>
      <trkpt lat="47.55306" lon="-1.52422">
        <ele>66</ele>
        <time>2023-10-29T23:38:57Z</time>
      </trkpt>
      <trkpt lat="47.553" lon="-1.52559">
        <ele>66</ele>
        <time>2023-10-29T23:41:00Z</time>
      </trkpt>
      <trkpt lat="47.55449" lon="-1.52521">
        <ele>62</ele>
        <time>2023-10-29T23:44:22Z</time>
        <extensions>
          <visugpx:TrkExtension xmlns:visugpx="https://www.visugpx.com/editgpx/">
            <visugpx:node>1</visugpx:node>
            </visugpx:TrkExtension>
        </extensions>
      </trkpt>
    </trkseg>
  </trk>
</gpx>